createdAt,value
2023-03-29T00:02:59.351Z,1.92
2023-03-29T00:06:05.538Z,2.04
2023-03-29T00:09:09.627Z,2.05
2023-03-29T00:12:11.980Z,1.99
2023-03-29T00:15:14.257Z,2.02
2023-03-29T00:18:16.540Z,2.06
2023-03-29T00:21:18.523Z,1.90
2023-03-29T00:24:21.457Z,1.77
2023-03-29T00:27:23.615Z,1.62
2023-03-29T00:30:25.905Z,1.66
2023-03-29T00:33:27.904Z,1.50
2023-03-29T00:36:30.303Z,1.27
2023-03-29T00:39:32.501Z,1.23
2023-03-29T00:42:35.009Z,1.32
2023-03-29T00:45:37.139Z,1.24
2023-03-29T00:48:39.438Z,1.25
2023-03-29T00:51:42.625Z,1.28
2023-03-29T00:54:46.001Z,1.44
2023-03-29T00:57:49.338Z,1.52
2023-03-29T01:00:58.660Z,1.65
2023-03-29T01:04:04.554Z,1.55
2023-03-29T01:07:09.544Z,1.57
2023-03-29T01:10:18.159Z,1.47
2023-03-29T01:13:26.266Z,1.47
2023-03-29T01:16:30.266Z,1.60
2023-03-29T01:19:37.512Z,1.46
2023-03-29T01:22:49.096Z,1.52
2023-03-29T01:26:04.798Z,1.42
2023-03-29T01:29:10.078Z,1.48
2023-03-29T01:32:19.876Z,1.38
2023-03-29T01:35:25.017Z,1.35
2023-03-29T01:38:30.531Z,1.28
2023-03-29T01:41:35.609Z,1.29
2023-03-29T01:44:52.852Z,1.36
2023-03-29T01:48:01.273Z,1.31
2023-03-29T01:51:13.330Z,1.27
2023-03-29T01:54:19.104Z,1.10
2023-03-29T01:57:21.714Z,1.07
2023-03-29T02:00:27.560Z,0.89
2023-03-29T02:03:31.061Z,0.75
2023-03-29T02:06:34.113Z,0.65
2023-03-29T02:09:37.714Z,0.71
2023-03-29T02:12:40.381Z,0.56
2023-03-29T02:15:44.430Z,0.52
2023-03-29T02:18:48.593Z,0.40
2023-03-29T02:22:04.257Z,0.25
2023-03-29T02:25:09.418Z,0.17
2023-03-29T02:28:12.861Z,0.35
2023-03-29T02:31:24.801Z,0.37
2023-03-29T02:34:28.206Z,0.29
2023-03-29T02:37:31.436Z,0.31
2023-03-29T02:40:37.570Z,0.41
2023-03-29T02:43:41.005Z,0.30
2023-03-29T02:46:43.945Z,0.12
2023-03-29T02:49:47.151Z,0.07
2023-03-29T02:52:59.255Z,0.08
2023-03-29T02:56:02.265Z,-0.12
2023-03-29T02:59:04.770Z,-0.33
2023-03-29T03:02:07.232Z,-0.27
2023-03-29T03:05:09.928Z,-0.28
2023-03-29T03:08:12.578Z,-0.11
2023-03-29T03:11:15.300Z,-0.17
2023-03-29T03:14:19.127Z,-0.04
2023-03-29T03:17:21.510Z,0.07
2023-03-29T03:20:24.035Z,0.04
2023-03-29T03:23:26.720Z,0.00
2023-03-29T03:26:30.082Z,-0.03
2023-03-29T03:29:32.502Z,-0.35
2023-03-29T03:32:35.913Z,-0.45
2023-03-29T03:35:39.528Z,-0.21
2023-03-29T03:38:43.933Z,-0.06
2023-03-29T03:41:46.472Z,-0.50
2023-03-29T03:44:50.367Z,-0.32
2023-03-29T03:47:54.061Z,-0.24
2023-03-29T03:50:58.509Z,-0.38
2023-03-29T03:54:01.193Z,-0.40
2023-03-29T03:57:08.767Z,-0.37
2023-03-29T04:00:21.449Z,-0.41
2023-03-29T04:03:24.964Z,-0.30
2023-03-29T04:06:30.687Z,-0.41
2023-03-29T04:09:38.088Z,-0.47
2023-03-29T04:12:41.596Z,-0.50
2023-03-29T04:15:46.169Z,-0.36
2023-03-29T04:18:49.729Z,-0.59
2023-03-29T04:21:52.711Z,-0.53
2023-03-29T04:24:55.179Z,-0.18
2023-03-29T04:27:58.639Z,0.02
2023-03-29T04:31:02.789Z,-0.17
2023-03-29T04:34:05.867Z,-0.05
2023-03-29T04:37:10.580Z,0.23
2023-03-29T04:40:15.061Z,0.17
2023-03-29T04:43:18.622Z,0.27
2023-03-29T04:46:21.978Z,0.28
2023-03-29T04:49:26.182Z,0.23
2023-03-29T04:52:33.053Z,0.27
2023-03-29T04:55:36.116Z,0.53
2023-03-29T04:58:39.226Z,0.60
2023-03-29T05:01:41.576Z,0.57
2023-03-29T05:04:44.339Z,0.93
2023-03-29T05:07:46.683Z,1.09
2023-03-29T05:10:50.979Z,1.02
2023-03-29T05:13:55.585Z,1.28
2023-03-29T05:16:58.816Z,1.63
2023-03-29T05:20:01.356Z,1.59
2023-03-29T05:23:04.207Z,1.79
2023-03-29T05:26:13.985Z,2.01
2023-03-29T05:29:17.162Z,2.66
2023-03-29T05:32:20.692Z,2.68
2023-03-29T05:35:25.499Z,2.87
2023-03-29T05:38:27.760Z,3.01
2023-03-29T05:41:30.640Z,3.10
2023-03-29T05:44:35.309Z,3.24
2023-03-29T05:47:39.009Z,3.05
2023-03-29T05:50:42.786Z,2.75
2023-03-29T05:53:47.056Z,2.61
2023-03-29T05:56:49.191Z,2.86
2023-03-29T05:59:51.686Z,2.87
2023-03-29T06:02:59.297Z,3.14
2023-03-29T06:06:10.102Z,3.08
2023-03-29T06:09:12.476Z,3.32
2023-03-29T06:12:15.058Z,3.40
2023-03-29T06:15:17.785Z,3.42
2023-03-29T06:18:20.772Z,3.66
2023-03-29T06:21:23.996Z,3.94
2023-03-29T06:24:27.127Z,3.95
2023-03-29T06:27:29.750Z,3.93
2023-03-29T06:30:34.520Z,4.12
2023-03-29T06:33:38.143Z,4.11
2023-03-29T06:36:42.470Z,4.42
2023-03-29T06:39:45.522Z,4.22
2023-03-29T06:42:57.914Z,4.56
2023-03-29T06:46:01.906Z,4.79
2023-03-29T06:49:09.876Z,5.07
2023-03-29T06:52:13.084Z,5.46
2023-03-29T06:55:17.806Z,5.89
2023-03-29T06:58:19.931Z,6.04
2023-03-29T07:01:22.918Z,5.94
2023-03-29T07:04:25.912Z,6.07
2023-03-29T07:07:44.057Z,6.34
2023-03-29T07:10:48.804Z,6.47
2023-03-29T07:13:54.450Z,6.32
2023-03-29T07:16:58.391Z,6.14
2023-03-29T07:20:02.156Z,6.11
2023-03-29T07:23:05.537Z,6.28
2023-03-29T07:26:08.163Z,6.55
2023-03-29T07:29:11.796Z,6.62
2023-03-29T07:32:15.087Z,7.02
2023-03-29T07:35:21.765Z,7.36
2023-03-29T07:38:25.278Z,7.78
2023-03-29T07:41:27.767Z,7.90
2023-03-29T07:44:32.921Z,8.04
2023-03-29T07:47:35.302Z,7.87
2023-03-29T07:50:37.931Z,8.39
2023-03-29T07:53:40.160Z,8.45
2023-03-29T07:56:47.629Z,8.17
2023-03-29T07:59:49.963Z,8.18
2023-03-29T08:02:53.379Z,7.98
2023-03-29T08:05:56.142Z,7.81
2023-03-29T08:12:32.864Z,8.44
2023-03-29T08:15:38.076Z,8.57
2023-03-29T08:18:46.393Z,8.63
2023-03-29T08:21:49.626Z,8.39
2023-03-29T08:24:58.073Z,8.69
2023-03-29T08:28:03.484Z,8.87
2023-03-29T08:31:13.097Z,8.70
2023-03-29T08:34:17.020Z,9.00
2023-03-29T08:37:21.327Z,9.13
2023-03-29T08:40:28.323Z,9.04
2023-03-29T08:43:44.614Z,8.63
2023-03-29T08:47:04.464Z,9.41
2023-03-29T08:50:09.269Z,9.48
2023-03-29T08:53:17.059Z,9.64
2023-03-29T08:56:27.121Z,9.30
2023-03-29T08:59:33.411Z,9.25
2023-03-29T09:02:37.498Z,9.36
2023-03-29T09:05:43.577Z,9.27
2023-03-29T09:08:47.574Z,9.31
2023-03-29T09:12:01.886Z,9.38
2023-03-29T09:15:06.954Z,9.83
2023-03-29T09:18:19.012Z,9.71
2023-03-29T09:21:26.752Z,9.52
2023-03-29T09:24:33.439Z,9.74
2023-03-29T09:27:35.894Z,9.87
2023-03-29T09:30:41.603Z,10.29
2023-03-29T09:33:49.730Z,10.24
2023-03-29T09:36:53.853Z,10.42
2023-03-29T09:39:57.618Z,10.38
2023-03-29T09:43:04.181Z,10.62
2023-03-29T09:46:16.058Z,10.50
2023-03-29T09:49:21.755Z,10.74
2023-03-29T09:52:24.727Z,10.38
2023-03-29T09:55:30.219Z,10.20
2023-03-29T09:58:32.966Z,9.98
2023-03-29T10:01:37.990Z,10.35
2023-03-29T10:04:43.205Z,10.05
2023-03-29T10:07:55.384Z,10.24
2023-03-29T10:10:59.947Z,10.58
2023-03-29T10:14:12.327Z,10.41
2023-03-29T10:17:25.569Z,10.42
2023-03-29T10:20:28.139Z,10.15
2023-03-29T10:23:32.486Z,10.26
2023-03-29T10:26:38.952Z,10.42
2023-03-29T10:29:43.076Z,10.20
2023-03-29T10:32:56.830Z,10.20
2023-03-29T10:36:03.714Z,10.04
2023-03-29T10:39:07.065Z,10.35
2023-03-29T10:42:11.564Z,10.16
2023-03-29T10:45:31.737Z,10.23
2023-03-29T10:48:37.593Z,10.31
2023-03-29T10:51:44.081Z,9.86
2023-03-29T10:54:48.097Z,9.73
2023-03-29T10:58:01.335Z,9.48
2023-03-29T11:01:06.259Z,9.37
2023-03-29T11:04:23.859Z,9.74
2023-03-29T11:07:29.600Z,9.88
2023-03-29T11:10:31.757Z,10.04
2023-03-29T11:13:42.514Z,10.27
2023-03-29T11:16:47.730Z,10.31
2023-03-29T11:20:03.021Z,10.26
2023-03-29T11:23:07.616Z,9.78
2023-03-29T11:26:15.791Z,9.73
2023-03-29T11:29:28.163Z,9.83
2023-03-29T11:33:21.365Z,10.01
2023-03-29T11:36:55.295Z,10.09
2023-03-29T11:40:21.221Z,10.10
2023-03-29T11:44:25.114Z,10.47
2023-03-29T11:47:30.733Z,10.62
2023-03-29T11:50:46.088Z,10.45
2023-03-29T11:53:58.953Z,10.55
2023-03-29T11:57:20.167Z,10.76
2023-03-29T12:00:25.514Z,10.48
2023-03-29T12:03:47.360Z,10.63
2023-03-29T12:07:03.181Z,10.71
2023-03-29T12:10:16.317Z,10.77
2023-03-29T12:13:32.388Z,10.96
2023-03-29T12:16:39.625Z,10.87
2023-03-29T12:19:45.062Z,10.89
2023-03-29T12:22:49.164Z,10.75
2023-03-29T12:25:54.552Z,10.71
2023-03-29T12:29:05.433Z,10.72
2023-03-29T12:32:26.217Z,10.62
2023-03-29T12:35:48.607Z,10.79
2023-03-29T12:38:56.184Z,10.86
2023-03-29T12:42:14.628Z,10.78
2023-03-29T12:45:20.021Z,10.91
2023-03-29T12:48:25.656Z,11.03
2023-03-29T12:51:32.497Z,11.12
2023-03-29T12:54:35.004Z,11.36
2023-03-29T12:57:42.100Z,11.69
2023-03-29T13:00:45.285Z,11.67
2023-03-29T13:03:49.140Z,11.20
2023-03-29T13:07:04.924Z,11.14
2023-03-29T13:10:25.354Z,11.16
2023-03-29T13:13:33.705Z,11.01
2023-03-29T13:16:35.964Z,11.16
2023-03-29T13:19:48.901Z,11.11
2023-03-29T13:22:50.950Z,11.11
2023-03-29T13:25:53.289Z,11.17
2023-03-29T13:29:04.730Z,11.33
2023-03-29T13:32:19.375Z,11.16
2023-03-29T13:35:21.588Z,11.15
2023-03-29T13:38:28.754Z,11.13
2023-03-29T13:41:40.037Z,11.23
2023-03-29T13:44:49.036Z,11.31
2023-03-29T13:51:13.613Z,11.40
2023-03-29T13:54:21.274Z,11.40
2023-03-29T13:57:25.556Z,11.28
2023-03-29T14:01:00.352Z,11.53
2023-03-29T14:04:04.998Z,11.44
2023-03-29T14:07:08.250Z,11.48
2023-03-29T14:10:13.855Z,11.31
2023-03-29T14:13:18.133Z,11.62
2023-03-29T14:16:21.234Z,11.69
2023-03-29T14:19:32.058Z,11.64
2023-03-29T14:22:34.697Z,11.63
2023-03-29T14:25:37.702Z,11.68
2023-03-29T14:28:47.327Z,11.27
2023-03-29T14:31:50.207Z,11.23
2023-03-29T14:34:53.031Z,11.11
2023-03-29T14:37:55.262Z,11.13
2023-03-29T14:40:59.317Z,11.45
2023-03-29T14:44:02.990Z,11.39
2023-03-29T14:47:06.320Z,11.49
2023-03-29T14:50:26.735Z,11.41
2023-03-29T14:53:31.950Z,11.53
2023-03-29T14:56:34.227Z,11.65
2023-03-29T14:59:38.800Z,11.76
2023-03-29T15:02:49.052Z,11.59
2023-03-29T15:06:03.814Z,11.42
2023-03-29T15:09:07.089Z,11.37
2023-03-29T15:12:15.516Z,11.50
2023-03-29T15:15:17.763Z,11.63
2023-03-29T15:18:22.119Z,11.58
2023-03-29T15:21:27.986Z,11.44
2023-03-29T15:24:31.912Z,11.22
2023-03-29T15:27:41.828Z,11.16
2023-03-29T15:30:49.449Z,11.03
2023-03-29T15:34:06.237Z,11.16
2023-03-29T15:37:11.543Z,11.26
2023-03-29T15:40:17.214Z,10.98
2023-03-29T15:43:21.599Z,11.18
2023-03-29T15:46:23.847Z,11.10
2023-03-29T15:49:27.001Z,11.11
2023-03-29T15:52:29.297Z,11.00
2023-03-29T15:55:32.263Z,11.04
2023-03-29T15:58:35.493Z,10.76
2023-03-29T16:01:38.943Z,10.87
2023-03-29T16:04:41.457Z,10.71
2023-03-29T16:07:43.613Z,10.47
2023-03-29T16:10:46.043Z,10.41
2023-03-29T16:13:48.276Z,10.41
2023-03-29T16:16:52.115Z,10.39
2023-03-29T16:19:54.464Z,10.28
2023-03-29T16:22:56.961Z,10.15
2023-03-29T16:25:59.522Z,10.28
2023-03-29T16:29:02.200Z,10.11
2023-03-29T16:32:06.771Z,10.10
2023-03-29T16:35:24.734Z,10.14
2023-03-29T16:38:29.248Z,10.09
2023-03-29T16:41:32.403Z,9.91
2023-03-29T16:44:34.461Z,9.80
2023-03-29T16:47:36.928Z,9.85
2023-03-29T16:50:38.942Z,9.87
2023-03-29T16:53:41.963Z,9.73
2023-03-29T16:56:44.367Z,9.59
2023-03-29T16:59:47.758Z,9.61
2023-03-29T17:02:50.257Z,9.38
2023-03-29T17:05:53.737Z,9.39
2023-03-29T17:08:55.760Z,9.30
2023-03-29T17:11:58.275Z,9.06
2023-03-29T17:15:00.478Z,9.18
2023-03-29T17:18:03.480Z,9.07
2023-03-29T17:21:05.949Z,9.05
2023-03-29T17:24:10.171Z,9.10
2023-03-29T17:27:12.265Z,8.93
2023-03-29T17:30:15.358Z,8.98
2023-03-29T17:33:22.261Z,8.94
2023-03-29T17:36:25.981Z,8.94
2023-03-29T17:39:28.384Z,8.90
2023-03-29T17:42:30.802Z,8.77
2023-03-29T17:45:35.286Z,8.73
2023-03-29T17:48:39.242Z,8.75
2023-03-29T17:51:41.473Z,8.73
2023-03-29T17:54:44.256Z,8.85
2023-03-29T17:57:46.285Z,8.80
2023-03-29T18:00:49.033Z,8.88
2023-03-29T18:03:51.860Z,8.68
2023-03-29T18:06:54.956Z,8.66
2023-03-29T18:09:57.916Z,8.57
2023-03-29T18:13:00.573Z,8.58
2023-03-29T18:16:04.356Z,8.42
2023-03-29T18:19:07.238Z,8.50
2023-03-29T18:22:09.736Z,8.41
2023-03-29T18:25:11.924Z,8.45
2023-03-29T18:28:14.664Z,8.49
2023-03-29T18:31:17.042Z,8.62
2023-03-29T18:34:19.626Z,8.56
2023-03-29T18:37:22.183Z,8.49
2023-03-29T18:40:24.913Z,8.44
2023-03-29T18:43:27.197Z,8.39
2023-03-29T18:46:33.301Z,8.45
2023-03-29T18:49:36.768Z,8.44
2023-03-29T18:52:40.119Z,8.42
2023-03-29T18:55:45.349Z,8.40
2023-03-29T18:58:48.127Z,8.32
2023-03-29T19:01:50.320Z,8.37
2023-03-29T19:04:52.838Z,8.26
2023-03-29T19:07:55.247Z,8.26
2023-03-29T19:11:01.925Z,8.20
2023-03-29T19:14:04.570Z,8.22
2023-03-29T19:17:06.930Z,8.27
2023-03-29T19:20:10.184Z,8.26
2023-03-29T19:23:12.670Z,8.27
2023-03-29T19:26:15.364Z,8.21
2023-03-29T19:29:18.162Z,8.17
2023-03-29T19:32:20.275Z,8.16
2023-03-29T19:35:23.221Z,8.12
2023-03-29T19:38:25.735Z,8.16
2023-03-29T19:41:28.469Z,8.07
2023-03-29T19:44:30.714Z,7.99
2023-03-29T19:47:33.454Z,7.95
2023-03-29T19:50:38.609Z,7.95
2023-03-29T19:53:41.831Z,7.88
2023-03-29T19:56:44.293Z,7.91
2023-03-29T19:59:47.384Z,7.86
2023-03-29T20:02:49.950Z,7.95
2023-03-29T20:05:52.460Z,8.09
2023-03-29T20:08:56.855Z,7.89
2023-03-29T20:11:59.529Z,7.87
2023-03-29T20:15:01.826Z,7.87
2023-03-29T20:18:04.413Z,7.92
2023-03-29T20:21:08.303Z,7.97
2023-03-29T20:24:11.324Z,7.95
2023-03-29T20:27:13.862Z,8.10
2023-03-29T20:30:16.483Z,7.97
2023-03-29T20:33:19.707Z,7.94
2023-03-29T20:36:23.158Z,8.01
2023-03-29T20:39:26.055Z,7.87
2023-03-29T20:42:30.311Z,7.90
2023-03-29T20:45:42.785Z,7.89
2023-03-29T20:48:54.842Z,7.92
2023-03-29T20:51:59.601Z,7.91
2023-03-29T20:55:01.930Z,7.97
2023-03-29T20:58:04.306Z,7.93
2023-03-29T21:01:06.989Z,7.95
2023-03-29T21:04:10.771Z,7.97
2023-03-29T21:07:17.560Z,7.96
2023-03-29T21:10:19.631Z,7.98
2023-03-29T21:13:22.743Z,7.98
2023-03-29T21:16:25.374Z,7.98
2023-03-29T21:19:28.199Z,7.94
2023-03-29T21:22:31.595Z,7.98
2023-03-29T21:25:36.155Z,8.01
2023-03-29T21:28:38.284Z,7.89
2023-03-29T21:31:40.815Z,7.91
2023-03-29T21:34:42.991Z,7.92
2023-03-29T21:37:45.451Z,7.86
2023-03-29T21:40:47.436Z,7.77
2023-03-29T21:43:49.887Z,7.75
2023-03-29T21:46:52.297Z,7.73
2023-03-29T21:49:55.031Z,7.66
2023-03-29T21:52:57.363Z,7.67
2023-03-29T21:55:59.870Z,7.66
2023-03-29T21:59:01.887Z,7.73
2023-03-29T22:02:04.553Z,7.75
2023-03-29T22:05:07.633Z,7.57
2023-03-29T22:08:12.658Z,7.39
2023-03-29T22:11:15.607Z,7.41
2023-03-29T22:14:19.384Z,7.32
2023-03-29T22:17:22.990Z,7.27
2023-03-29T22:20:25.130Z,7.24
2023-03-29T22:23:27.782Z,7.19
2023-03-29T22:26:31.654Z,7.10
2023-03-29T22:29:34.260Z,7.08
2023-03-29T22:32:36.842Z,6.95
2023-03-29T22:35:39.384Z,6.87
2023-03-29T22:38:41.652Z,6.60
2023-03-29T22:41:44.050Z,6.51
2023-03-29T22:44:46.514Z,6.48
2023-03-29T22:47:49.042Z,6.60
2023-03-29T22:50:51.560Z,6.43
2023-03-29T22:53:53.989Z,6.50
2023-03-29T22:56:56.930Z,6.49
2023-03-29T22:59:59.470Z,6.43
2023-03-29T23:03:01.935Z,6.34
2023-03-29T23:06:04.510Z,6.29
2023-03-29T23:09:06.989Z,6.35
2023-03-29T23:12:09.791Z,6.33
2023-03-29T23:15:12.201Z,6.26
2023-03-29T23:18:18.242Z,6.34
2023-03-29T23:21:20.379Z,6.31
2023-03-29T23:24:23.490Z,6.45
2023-03-29T23:27:26.190Z,6.41
2023-03-29T23:30:29.820Z,6.43
2023-03-29T23:33:35.289Z,6.33
2023-03-29T23:36:38.392Z,6.24
2023-03-29T23:39:41.578Z,6.28
2023-03-29T23:42:45.082Z,6.31
2023-03-29T23:45:47.351Z,6.31
2023-03-29T23:48:50.814Z,6.36
2023-03-29T23:51:53.238Z,6.56
2023-03-29T23:54:56.202Z,6.43
2023-03-29T23:57:58.405Z,6.37
